createdAt,value
2018-07-27T00:00:28.537Z,26.20
2018-07-27T00:02:56.877Z,26.10
2018-07-27T00:05:25.156Z,26.10
2018-07-27T00:07:53.491Z,26.10
2018-07-27T00:10:21.842Z,26.10
2018-07-27T00:12:50.164Z,26.10
2018-07-27T00:15:18.456Z,26.00
2018-07-27T00:17:46.819Z,26.00
2018-07-27T00:20:15.156Z,26.00
2018-07-27T00:22:43.483Z,26.00
2018-07-27T00:25:11.811Z,25.90
2018-07-27T00:27:40.127Z,25.90
2018-07-27T00:30:08.460Z,25.90
2018-07-27T00:32:36.823Z,25.90
2018-07-27T00:35:05.151Z,25.90
2018-07-27T00:37:33.468Z,25.90
2018-07-27T00:40:01.776Z,25.80
2018-07-27T00:42:30.111Z,25.80
2018-07-27T00:44:58.412Z,25.80
2018-07-27T00:47:26.730Z,25.70
2018-07-27T00:49:55.049Z,25.60
2018-07-27T00:52:23.385Z,25.60
2018-07-27T00:54:51.723Z,25.60
2018-07-27T00:57:20.053Z,25.60
2018-07-27T00:59:48.353Z,25.60
2018-07-27T01:02:16.777Z,25.50
2018-07-27T01:04:45.152Z,25.50
2018-07-27T01:07:13.532Z,25.50
2018-07-27T01:09:41.888Z,25.40
2018-07-27T01:12:10.288Z,25.20
2018-07-27T01:14:38.666Z,25.10
2018-07-27T01:17:07.083Z,25.00
2018-07-27T01:19:35.497Z,25.00
2018-07-27T01:22:03.906Z,24.90
2018-07-27T01:24:32.280Z,24.70
2018-07-27T01:27:00.645Z,24.60
2018-07-27T01:29:29.018Z,24.50
2018-07-27T01:31:57.395Z,24.50
2018-07-27T01:34:25.860Z,24.50
2018-07-27T01:36:54.236Z,24.50
2018-07-27T01:39:22.689Z,24.50
2018-07-27T01:41:51.089Z,24.50
2018-07-27T01:44:19.491Z,24.40
2018-07-27T01:46:47.870Z,24.30
2018-07-27T01:49:16.252Z,24.30
2018-07-27T01:51:44.628Z,24.30
2018-07-27T01:54:13.011Z,24.30
2018-07-27T01:56:41.372Z,24.30
2018-07-27T01:59:09.760Z,24.20
2018-07-27T02:01:38.132Z,24.30
2018-07-27T02:04:06.883Z,24.20
2018-07-27T02:06:35.273Z,24.20
2018-07-27T02:09:05.815Z,24.20
2018-07-27T02:14:02.289Z,24.20
2018-07-27T02:16:30.657Z,24.10
2018-07-27T02:18:59.073Z,24.10
2018-07-27T02:21:27.364Z,24.10
2018-07-27T02:23:55.669Z,24.10
2018-07-27T02:26:23.988Z,24.10
2018-07-27T02:28:52.293Z,24.10
2018-07-27T02:31:20.622Z,24.10
2018-07-27T02:33:48.979Z,24.00
2018-07-27T02:36:17.276Z,24.00
2018-07-27T02:38:45.596Z,24.00
2018-07-27T02:41:14.087Z,24.00
2018-07-27T02:43:42.397Z,24.00
2018-07-27T02:46:10.707Z,24.00
2018-07-27T02:48:39.056Z,24.00
2018-07-27T02:51:07.528Z,24.10
2018-07-27T02:53:35.899Z,24.00
2018-07-27T02:56:04.226Z,24.00
2018-07-27T02:58:32.572Z,24.00
2018-07-27T03:01:00.907Z,24.00
2018-07-27T03:03:29.260Z,24.10
2018-07-27T03:05:57.839Z,24.10
2018-07-27T03:08:26.201Z,24.10
2018-07-27T03:10:54.533Z,24.00
2018-07-27T03:13:22.937Z,24.00
2018-07-27T03:15:51.244Z,24.00
2018-07-27T03:18:19.595Z,24.00
2018-07-27T03:20:47.942Z,23.90
2018-07-27T03:23:16.350Z,23.90
2018-07-27T03:25:44.671Z,23.90
2018-07-27T03:28:13.017Z,23.90
2018-07-27T03:30:41.347Z,23.80
2018-07-27T03:33:09.693Z,23.80
2018-07-27T03:35:38.195Z,23.80
2018-07-27T03:38:06.525Z,23.80
2018-07-27T03:40:34.893Z,23.80
2018-07-27T03:43:03.287Z,23.70
2018-07-27T03:45:31.655Z,23.70
2018-07-27T03:48:00.046Z,23.70
2018-07-27T03:50:28.370Z,23.70
2018-07-27T03:52:56.680Z,23.70
2018-07-27T03:55:24.997Z,23.70
2018-07-27T03:57:53.296Z,23.60
2018-07-27T04:00:21.739Z,23.60
2018-07-27T04:02:50.131Z,23.70
2018-07-27T04:05:18.448Z,23.60
2018-07-27T04:07:46.847Z,23.60
2018-07-27T04:10:15.324Z,23.60
2018-07-27T04:12:43.631Z,23.50
2018-07-27T04:15:11.964Z,23.50
2018-07-27T04:17:44.034Z,23.50
2018-07-27T04:20:12.349Z,23.60
2018-07-27T04:22:40.671Z,23.60
2018-07-27T04:25:09.071Z,23.70
2018-07-27T04:27:37.379Z,23.70
2018-07-27T04:30:05.941Z,23.70
2018-07-27T04:32:34.273Z,23.70
2018-07-27T04:35:02.701Z,23.70
2018-07-27T04:37:31.037Z,23.70
2018-07-27T04:39:59.344Z,23.70
2018-07-27T04:42:27.637Z,23.70
2018-07-27T04:44:55.957Z,23.70
2018-07-27T04:47:24.265Z,23.80
2018-07-27T04:49:52.703Z,23.80
2018-07-27T04:52:21.064Z,23.80
2018-07-27T04:54:49.418Z,23.80
2018-07-27T04:57:17.709Z,23.90
2018-07-27T04:59:46.025Z,23.90
2018-07-27T05:02:14.330Z,23.90
2018-07-27T05:04:42.864Z,23.90
2018-07-27T05:07:11.195Z,24.00
2018-07-27T05:09:39.529Z,24.00
2018-07-27T05:12:07.881Z,24.00
2018-07-27T05:14:36.261Z,24.10
2018-07-27T05:17:04.635Z,24.10
2018-07-27T05:19:32.966Z,24.10
2018-07-27T05:22:01.289Z,24.20
2018-07-27T05:24:29.643Z,24.30
2018-07-27T05:26:57.967Z,24.30
2018-07-27T05:29:26.301Z,24.40
2018-07-27T05:31:54.604Z,24.40
2018-07-27T05:34:23.007Z,24.50
2018-07-27T05:36:51.244Z,24.50
2018-07-27T05:39:19.584Z,24.60
2018-07-27T05:41:47.901Z,24.80
2018-07-27T05:44:16.217Z,24.90
2018-07-27T05:46:44.545Z,25.10
2018-07-27T05:49:12.857Z,25.20
2018-07-27T05:51:41.373Z,25.40
2018-07-27T05:54:09.670Z,25.60
2018-07-27T05:56:37.989Z,25.80
2018-07-27T05:59:06.349Z,26.10
2018-07-27T06:01:34.670Z,26.40
2018-07-27T06:04:03.008Z,26.70
2018-07-27T06:06:31.352Z,27.00
2018-07-27T06:08:59.653Z,27.20
2018-07-27T06:11:28.039Z,27.50
2018-07-27T06:13:56.349Z,27.80
2018-07-27T06:16:24.753Z,28.10
2018-07-27T06:18:53.083Z,28.20
2018-07-27T06:21:21.401Z,28.40
2018-07-27T06:23:49.725Z,28.50
2018-07-27T06:26:18.108Z,28.70
2018-07-27T06:28:46.442Z,28.90
2018-07-27T06:31:14.771Z,28.90
2018-07-27T06:33:43.088Z,29.10
2018-07-27T06:36:11.426Z,29.30
2018-07-27T06:38:39.753Z,29.50
2018-07-27T06:41:08.111Z,29.50
2018-07-27T06:43:36.458Z,29.70
2018-07-27T06:46:04.835Z,29.90
2018-07-27T06:48:33.211Z,30.00
2018-07-27T06:51:01.562Z,30.30
2018-07-27T06:53:29.880Z,30.40
2018-07-27T06:55:58.215Z,30.50
2018-07-27T06:58:26.531Z,30.60
2018-07-27T07:00:54.869Z,30.80
2018-07-27T07:03:23.286Z,30.90
2018-07-27T07:05:51.573Z,31.00
2018-07-27T07:08:19.880Z,31.20
2018-07-27T07:10:48.224Z,31.20
2018-07-27T07:13:16.529Z,31.30
2018-07-27T07:15:44.950Z,31.40
2018-07-27T07:18:13.241Z,31.50
2018-07-27T07:20:41.577Z,31.60
2018-07-27T07:23:10.007Z,31.60
2018-07-27T07:25:38.424Z,31.70
2018-07-27T07:28:06.639Z,31.60
2018-07-27T07:30:34.983Z,31.80
2018-07-27T07:33:03.313Z,31.80
2018-07-27T07:35:31.626Z,31.90
2018-07-27T07:37:59.940Z,32.10
2018-07-27T07:40:28.240Z,32.30
2018-07-27T07:42:56.560Z,32.60
2018-07-27T07:45:24.872Z,32.70
2018-07-27T07:47:53.240Z,32.70
2018-07-27T07:50:21.536Z,32.80
2018-07-27T07:52:49.861Z,33.00
2018-07-27T07:55:18.170Z,33.20
2018-07-27T07:57:46.519Z,33.50
2018-07-27T08:00:14.860Z,33.60
2018-07-27T08:02:43.305Z,33.60
2018-07-27T08:05:11.620Z,33.70
2018-07-27T08:07:39.941Z,33.50
2018-07-27T08:10:08.244Z,33.50
2018-07-27T08:12:36.575Z,33.50
2018-07-27T08:15:05.283Z,33.40
2018-07-27T08:17:33.626Z,33.50
2018-07-27T08:20:01.957Z,33.70
2018-07-27T08:22:30.289Z,33.90
2018-07-27T08:24:58.612Z,34.20
2018-07-27T08:27:26.943Z,34.20
2018-07-27T08:32:23.303Z,34.20
2018-07-27T08:34:51.615Z,34.20
2018-07-27T08:37:19.936Z,34.10
2018-07-27T08:39:48.285Z,34.20
2018-07-27T08:44:44.682Z,34.60
2018-07-27T08:47:13.084Z,34.90
2018-07-27T08:49:41.344Z,34.90
2018-07-27T08:52:09.685Z,34.80
2018-07-27T08:54:37.999Z,34.70
2018-07-27T08:57:06.371Z,34.80
2018-07-27T08:59:34.669Z,34.80
2018-07-27T09:02:02.994Z,35.00
2018-07-27T09:04:31.967Z,34.80
2018-07-27T09:07:00.272Z,34.60
2018-07-27T09:09:28.612Z,34.40
2018-07-27T09:11:56.913Z,34.20
2018-07-27T09:14:25.287Z,34.50
2018-07-27T09:16:53.609Z,34.70
2018-07-27T09:19:22.004Z,34.50
2018-07-27T09:21:50.313Z,34.50
2018-07-27T09:24:18.685Z,34.50
2018-07-27T09:26:47.018Z,34.40
2018-07-27T09:29:15.333Z,34.50
2018-07-27T09:31:43.656Z,34.80
2018-07-27T09:34:12.033Z,34.90
2018-07-27T09:36:40.382Z,34.80
2018-07-27T09:39:09.989Z,35.00
2018-07-27T09:41:38.314Z,35.30
2018-07-27T09:44:06.915Z,35.30
2018-07-27T09:46:35.723Z,35.40
2018-07-27T09:49:04.089Z,35.20
2018-07-27T09:51:32.563Z,35.20
2018-07-27T09:54:00.887Z,35.20
2018-07-27T09:56:29.215Z,35.40
2018-07-27T09:58:57.581Z,35.40
2018-07-27T10:01:27.534Z,35.40
2018-07-27T10:03:56.199Z,35.40
2018-07-27T10:06:24.520Z,35.50
2018-07-27T10:08:52.871Z,35.70
2018-07-27T10:11:21.592Z,35.60
2018-07-27T10:13:49.991Z,35.50
2018-07-27T10:16:18.320Z,35.50
2018-07-27T10:18:47.519Z,35.40
2018-07-27T10:21:15.919Z,35.30
2018-07-27T10:23:44.581Z,35.10
2018-07-27T10:26:12.959Z,34.90
2018-07-27T10:28:41.291Z,35.00
2018-07-27T10:31:09.660Z,35.10
2018-07-27T10:33:37.990Z,35.30
2018-07-27T10:36:06.520Z,35.20
2018-07-27T10:38:34.916Z,35.10
2018-07-27T10:41:03.321Z,35.20
2018-07-27T10:43:31.631Z,35.20
2018-07-27T10:45:59.956Z,35.40
2018-07-27T10:48:28.264Z,35.60
2018-07-27T10:50:56.678Z,35.80
2018-07-27T10:53:24.999Z,35.70
2018-07-27T10:55:53.329Z,35.50
2018-07-27T10:58:21.866Z,35.40
2018-07-27T11:00:50.203Z,35.60
2018-07-27T11:03:18.521Z,35.60
2018-07-27T11:05:46.871Z,35.60
2018-07-27T11:08:15.198Z,35.50
2018-07-27T11:10:43.557Z,35.60
2018-07-27T11:13:11.884Z,35.50
2018-07-27T11:15:40.211Z,35.60
2018-07-27T11:18:08.533Z,35.60
2018-07-27T11:20:37.019Z,35.70
2018-07-27T11:23:05.347Z,35.90
2018-07-27T11:25:33.750Z,36.00
2018-07-27T11:28:02.151Z,36.00
2018-07-27T11:30:30.672Z,36.00
2018-07-27T11:32:58.971Z,36.10
2018-07-27T11:35:27.332Z,36.10
2018-07-27T11:37:55.676Z,35.80
2018-07-27T11:40:24.033Z,35.70
2018-07-27T11:42:52.333Z,35.80
2018-07-27T11:45:20.671Z,35.90
2018-07-27T11:47:48.981Z,36.00
2018-07-27T11:50:17.290Z,36.00
2018-07-27T11:52:45.661Z,36.10
2018-07-27T11:55:14.003Z,36.20
2018-07-27T11:57:42.388Z,36.30
2018-07-27T12:00:10.733Z,36.40
2018-07-27T12:05:15.278Z,36.20
2018-07-27T12:07:43.612Z,36.20
2018-07-27T12:10:11.956Z,36.00
2018-07-27T12:12:40.277Z,36.00
2018-07-27T12:15:08.889Z,36.20
2018-07-27T12:17:36.946Z,36.20
2018-07-27T12:20:05.250Z,36.30
2018-07-27T12:22:33.675Z,36.30
2018-07-27T12:25:01.976Z,36.20
2018-07-27T12:27:30.693Z,36.00
2018-07-27T12:29:59.047Z,36.10
2018-07-27T12:32:27.380Z,36.10
2018-07-27T12:34:55.706Z,36.00
2018-07-27T12:37:24.047Z,35.90
2018-07-27T12:39:52.384Z,35.80
2018-07-27T12:42:20.712Z,35.90
2018-07-27T12:44:49.111Z,35.90
2018-07-27T12:47:17.388Z,36.00
2018-07-27T12:49:45.680Z,35.90
2018-07-27T12:52:13.994Z,36.00
2018-07-27T12:54:42.320Z,36.10
2018-07-27T12:57:10.659Z,36.30
2018-07-27T12:59:38.962Z,36.30
2018-07-27T13:02:07.380Z,36.30
2018-07-27T13:04:35.708Z,36.20
2018-07-27T13:07:04.021Z,36.30
2018-07-27T13:09:32.353Z,36.30
2018-07-27T13:12:00.677Z,36.30
2018-07-27T13:14:28.993Z,36.20
2018-07-27T13:16:57.305Z,36.20
2018-07-27T13:19:25.649Z,36.10
2018-07-27T13:21:54.053Z,36.20
2018-07-27T13:26:50.721Z,36.20
2018-07-27T13:29:19.107Z,36.10
2018-07-27T13:31:49.372Z,36.20
2018-07-27T13:34:39.333Z,36.30
2018-07-27T13:37:07.684Z,36.30
2018-07-27T13:39:36.606Z,36.30
2018-07-27T13:42:05.773Z,36.30
2018-07-27T13:44:35.255Z,36.30
2018-07-27T13:47:04.444Z,36.20
2018-07-27T13:49:32.844Z,36.10
2018-07-27T13:52:01.447Z,36.20
2018-07-27T13:54:30.921Z,36.30
2018-07-27T13:56:59.476Z,36.40
2018-07-27T13:59:27.806Z,36.40
2018-07-27T14:01:56.191Z,36.20
2018-07-27T14:04:24.583Z,36.20
2018-07-27T14:06:54.226Z,36.20
2018-07-27T14:09:22.556Z,36.20
2018-07-27T14:11:50.893Z,36.20
2018-07-27T14:14:19.290Z,36.10
2018-07-27T14:16:47.601Z,36.00
2018-07-27T14:19:16.842Z,36.00
2018-07-27T14:21:45.144Z,36.00
2018-07-27T14:24:13.499Z,36.00
2018-07-27T14:26:41.862Z,36.00
2018-07-27T14:29:10.219Z,36.00
2018-07-27T14:31:38.569Z,35.80
2018-07-27T14:34:07.451Z,35.70
2018-07-27T14:36:35.815Z,35.70
2018-07-27T14:39:06.753Z,35.80
2018-07-27T14:41:35.071Z,35.90
2018-07-27T14:44:03.820Z,36.10
2018-07-27T14:46:32.313Z,36.20
2018-07-27T14:49:00.723Z,36.20
2018-07-27T14:51:29.288Z,36.30
2018-07-27T14:53:57.655Z,36.30
2018-07-27T14:56:25.991Z,36.20
2018-07-27T14:58:54.323Z,36.00
2018-07-27T15:01:22.668Z,36.00
2018-07-27T15:03:51.027Z,35.90
2018-07-27T15:06:19.358Z,36.00
2018-07-27T15:08:47.660Z,35.90
2018-07-27T15:11:15.976Z,35.90
2018-07-27T15:13:44.299Z,35.80
2018-07-27T15:16:12.635Z,35.60
2018-07-27T15:18:40.934Z,35.50
2018-07-27T15:21:09.287Z,35.70
2018-07-27T15:23:37.595Z,35.60
2018-07-27T15:26:05.908Z,35.60
2018-07-27T15:28:34.753Z,35.50
2018-07-27T15:31:03.311Z,35.50
2018-07-27T15:33:31.787Z,35.70
2018-07-27T15:36:00.109Z,35.70
2018-07-27T15:38:28.460Z,35.70
2018-07-27T15:40:56.792Z,35.70
2018-07-27T15:43:25.103Z,35.70
2018-07-27T15:45:53.442Z,35.80
2018-07-27T15:48:22.543Z,35.80
2018-07-27T15:50:50.781Z,35.90
2018-07-27T15:53:19.119Z,35.90
2018-07-27T15:55:47.505Z,35.80
2018-07-27T15:58:15.847Z,35.80
2018-07-27T16:00:44.168Z,35.70
2018-07-27T16:03:12.522Z,35.70
2018-07-27T16:05:40.898Z,35.80
2018-07-27T16:08:09.243Z,35.80
2018-07-27T16:10:37.576Z,35.80
2018-07-27T16:13:06.114Z,35.70
2018-07-27T16:15:34.533Z,35.70
2018-07-27T16:18:02.924Z,35.70
2018-07-27T16:20:31.276Z,35.70
2018-07-27T16:22:59.697Z,35.80
2018-07-27T16:25:28.057Z,35.80
2018-07-27T16:27:56.360Z,35.70
2018-07-27T16:30:24.784Z,35.70
2018-07-27T16:32:53.137Z,35.50
2018-07-27T16:35:21.475Z,35.50
2018-07-27T16:37:49.812Z,35.50
2018-07-27T16:40:18.144Z,35.50
2018-07-27T16:42:46.480Z,35.50
2018-07-27T16:45:14.801Z,35.60
2018-07-27T16:47:43.176Z,35.60
2018-07-27T16:50:11.489Z,35.60
2018-07-27T16:52:39.851Z,35.50
2018-07-27T16:55:08.226Z,35.40
2018-07-27T16:57:36.557Z,35.50
2018-07-27T17:00:05.171Z,35.50
2018-07-27T17:02:33.548Z,35.60
2018-07-27T17:05:02.006Z,35.50
2018-07-27T17:07:30.356Z,35.40
2018-07-27T17:09:58.920Z,35.50
2018-07-27T17:12:27.265Z,35.40
2018-07-27T17:14:55.569Z,35.30
2018-07-27T17:17:23.923Z,35.30
2018-07-27T17:19:52.237Z,35.30
2018-07-27T17:22:20.552Z,35.30
2018-07-27T17:24:48.989Z,35.20
2018-07-27T17:27:17.335Z,35.20
2018-07-27T17:29:45.742Z,35.20
2018-07-27T17:32:14.093Z,35.30
2018-07-27T17:34:42.402Z,35.20
2018-07-27T17:37:10.754Z,35.20
2018-07-27T17:39:39.095Z,35.10
2018-07-27T17:42:07.437Z,35.10
2018-07-27T17:44:35.736Z,35.10
2018-07-27T17:47:04.107Z,35.00
2018-07-27T17:49:32.453Z,35.00
2018-07-27T17:52:00.857Z,35.00
2018-07-27T17:54:29.180Z,34.90
2018-07-27T17:56:57.533Z,34.90
2018-07-27T17:59:25.865Z,34.80
2018-07-27T18:01:54.220Z,34.70
2018-07-27T18:04:22.633Z,34.70
2018-07-27T18:06:50.967Z,34.70
2018-07-27T18:09:19.345Z,34.70
2018-07-27T18:11:47.742Z,34.70
2018-07-27T18:14:16.101Z,34.70
2018-07-27T18:16:44.609Z,34.70
2018-07-27T18:19:12.958Z,34.60
2018-07-27T18:21:41.304Z,34.60
2018-07-27T18:24:09.655Z,34.50
2018-07-27T18:26:38.137Z,34.40
2018-07-27T18:29:06.760Z,34.30
2018-07-27T18:31:35.097Z,34.20
2018-07-27T18:34:03.544Z,34.20
2018-07-27T18:36:31.863Z,34.10
2018-07-27T18:39:00.238Z,34.10
2018-07-27T18:41:28.551Z,33.90
2018-07-27T18:43:56.899Z,33.70
2018-07-27T18:46:25.215Z,33.50
2018-07-27T18:48:53.676Z,33.50
2018-07-27T18:51:22.003Z,33.30
2018-07-27T18:53:50.317Z,33.30
2018-07-27T18:56:18.649Z,33.30
2018-07-27T18:58:46.981Z,33.10
2018-07-27T19:01:15.294Z,33.10
2018-07-27T19:03:43.733Z,32.90
2018-07-27T19:06:12.191Z,32.70
2018-07-27T19:08:40.567Z,32.50
2018-07-27T19:11:08.921Z,32.40
2018-07-27T19:13:37.298Z,32.30
2018-07-27T19:16:06.029Z,32.10
2018-07-27T19:18:34.367Z,31.90
2018-07-27T19:21:02.702Z,31.80
2018-07-27T19:23:31.073Z,31.60
2018-07-27T19:25:59.399Z,31.50
2018-07-27T19:28:27.766Z,31.30
2018-07-27T19:30:56.173Z,31.20
2018-07-27T19:33:24.546Z,31.10
2018-07-27T19:35:52.823Z,30.90
2018-07-27T19:38:21.141Z,30.70
2018-07-27T19:40:49.466Z,30.60
2018-07-27T19:43:17.783Z,30.50
2018-07-27T19:45:46.121Z,30.50
2018-07-27T19:48:14.427Z,30.30
2018-07-27T19:50:42.817Z,30.20
2018-07-27T19:55:39.306Z,29.90
2018-07-27T19:58:07.663Z,29.70
2018-07-27T20:00:36.035Z,29.70
2018-07-27T20:03:04.495Z,29.70
2018-07-27T20:05:33.928Z,29.60
2018-07-27T20:08:02.323Z,29.60
2018-07-27T20:10:30.762Z,29.60
2018-07-27T20:12:59.137Z,29.30
2018-07-27T20:15:27.471Z,29.30
2018-07-27T20:17:55.780Z,29.30
2018-07-27T20:20:24.115Z,29.20
2018-07-27T20:22:52.427Z,29.20
2018-07-27T20:25:20.760Z,29.10
2018-07-27T20:27:49.091Z,29.10
2018-07-27T20:30:17.493Z,29.20
2018-07-27T20:32:45.812Z,29.10
2018-07-27T20:35:14.155Z,29.10
2018-07-27T20:37:42.526Z,29.10
2018-07-27T20:40:10.859Z,29.00
2018-07-27T20:42:39.195Z,28.90
2018-07-27T20:45:07.783Z,28.90
2018-07-27T20:47:36.591Z,28.80
2018-07-27T20:50:05.520Z,28.80
2018-07-27T20:52:33.889Z,28.80
2018-07-27T20:55:02.442Z,28.90
2018-07-27T20:57:30.771Z,28.90
2018-07-27T21:00:01.397Z,28.90
2018-07-27T21:02:29.747Z,28.90
2018-07-27T21:04:58.216Z,28.90
2018-07-27T21:07:26.542Z,28.70
2018-07-27T21:09:54.912Z,28.70
2018-07-27T21:12:23.276Z,28.70
2018-07-27T21:14:51.573Z,28.60
2018-07-27T21:17:19.904Z,28.60
2018-07-27T21:19:48.197Z,28.50
2018-07-27T21:22:16.521Z,28.50
2018-07-27T21:24:44.824Z,28.60
2018-07-27T21:27:13.177Z,28.60
2018-07-27T21:29:41.499Z,28.60
2018-07-27T21:32:09.832Z,28.60
2018-07-27T21:34:38.215Z,28.50
2018-07-27T21:37:06.537Z,28.50
2018-07-27T21:39:34.847Z,28.50
2018-07-27T21:42:03.199Z,28.40
2018-07-27T21:44:31.492Z,28.30
2018-07-27T21:46:59.804Z,28.20
2018-07-27T21:49:28.107Z,28.20
2018-07-27T21:51:56.421Z,28.20
2018-07-27T21:54:24.705Z,28.10
2018-07-27T21:56:53.016Z,28.00
2018-07-27T21:59:21.343Z,28.00
2018-07-27T22:01:49.664Z,27.90
2018-07-27T22:04:18.009Z,27.90
2018-07-27T22:06:46.361Z,27.90
2018-07-27T22:09:14.688Z,27.80
2018-07-27T22:11:43.051Z,27.80
2018-07-27T22:14:11.365Z,27.80
2018-07-27T22:16:39.700Z,27.80
2018-07-27T22:19:08.005Z,27.70
2018-07-27T22:21:36.360Z,27.60
2018-07-27T22:24:04.669Z,27.60
2018-07-27T22:26:33.042Z,27.50
2018-07-27T22:29:01.390Z,27.40
2018-07-27T22:31:29.721Z,27.40
2018-07-27T22:33:58.043Z,27.40
2018-07-27T22:36:26.366Z,27.40
2018-07-27T22:38:54.788Z,27.40
2018-07-27T22:41:23.123Z,27.30
2018-07-27T22:43:51.498Z,27.30
2018-07-27T22:46:19.807Z,27.20
2018-07-27T22:48:48.324Z,27.10
2018-07-27T22:51:16.660Z,27.10
2018-07-27T22:53:45.016Z,27.10
2018-07-27T22:56:13.324Z,27.00
2018-07-27T22:58:41.640Z,27.00
2018-07-27T23:01:09.940Z,27.00
2018-07-27T23:03:38.311Z,27.00
2018-07-27T23:06:06.652Z,27.00
2018-07-27T23:08:35.017Z,26.90
2018-07-27T23:11:03.369Z,26.90
2018-07-27T23:13:31.706Z,26.90
2018-07-27T23:16:00.063Z,26.90
2018-07-27T23:18:28.394Z,26.90
2018-07-27T23:20:56.690Z,26.90
2018-07-27T23:23:25.032Z,26.90
2018-07-27T23:25:53.364Z,26.90
2018-07-27T23:28:21.674Z,26.90
2018-07-27T23:30:49.992Z,26.80
2018-07-27T23:33:18.366Z,26.80
2018-07-27T23:35:46.668Z,26.80
2018-07-27T23:38:15.036Z,26.70
2018-07-27T23:40:43.361Z,26.70
2018-07-27T23:43:11.764Z,26.70
2018-07-27T23:45:40.078Z,26.70
2018-07-27T23:48:08.406Z,26.70
2018-07-27T23:50:36.824Z,26.60
2018-07-27T23:53:05.243Z,26.70
2018-07-27T23:55:33.545Z,26.60
2018-07-27T23:58:01.878Z,26.50
